sensor_id;sensor_type;location;lat;lon;timestamp;P1;durP1;ratioP1;P2;durP2;ratioP2
85316;SDS011;75721;52.330;9.772;2024-03-07T00:01:25;25.23;;;11.63;;
85316;SDS011;75721;52.330;9.772;2024-03-07T00:03:51;25.05;;;11.68;;
85316;SDS011;75721;52.330;9.772;2024-03-07T00:06:17;28.23;;;11.77;;
85316;SDS011;75721;52.330;9.772;2024-03-07T00:08:42;23.13;;;11.63;;
85316;SDS011;75721;52.330;9.772;2024-03-07T00:11:07;26.70;;;12.40;;
85316;SDS011;75721;52.330;9.772;2024-03-07T00:13:34;26.65;;;11.48;;
85316;SDS011;75721;52.330;9.772;2024-03-07T00:15:59;25.27;;;11.27;;
85316;SDS011;75721;52.330;9.772;2024-03-07T00:18:26;21.83;;;10.00;;
85316;SDS011;75721;52.330;9.772;2024-03-07T00:20:52;24.95;;;11.00;;
85316;SDS011;75721;52.330;9.772;2024-03-07T00:23:19;21.15;;;10.88;;
85316;SDS011;75721;52.330;9.772;2024-03-07T00:25:45;25.95;;;11.32;;
85316;SDS011;75721;52.330;9.772;2024-03-07T00:28:11;22.63;;;10.27;;
85316;SDS011;75721;52.330;9.772;2024-03-07T00:30:36;21.45;;;11.20;;
85316;SDS011;75721;52.330;9.772;2024-03-07T00:33:02;24.83;;;11.32;;
85316;SDS011;75721;52.330;9.772;2024-03-07T00:35:27;26.48;;;11.25;;
85316;SDS011;75721;52.330;9.772;2024-03-07T00:37:53;22.73;;;9.87;;
85316;SDS011;75721;52.330;9.772;2024-03-07T00:40:18;24.27;;;11.57;;
85316;SDS011;75721;52.330;9.772;2024-03-07T00:42:44;25.70;;;10.73;;
85316;SDS011;75721;52.330;9.772;2024-03-07T00:45:09;28.25;;;11.73;;
85316;SDS011;75721;52.330;9.772;2024-03-07T00:47:35;25.27;;;11.33;;
85316;SDS011;75721;52.330;9.772;2024-03-07T00:50:00;26.10;;;11.13;;
85316;SDS011;75721;52.330;9.772;2024-03-07T00:52:25;23.88;;;10.73;;
85316;SDS011;75721;52.330;9.772;2024-03-07T00:54:51;23.92;;;11.57;;
85316;SDS011;75721;52.330;9.772;2024-03-07T00:57:16;22.80;;;11.30;;
85316;SDS011;75721;52.330;9.772;2024-03-07T00:59:41;27.20;;;10.52;;
85316;SDS011;75721;52.330;9.772;2024-03-07T01:02:07;22.00;;;10.60;;
85316;SDS011;75721;52.330;9.772;2024-03-07T01:04:32;27.30;;;10.83;;
85316;SDS011;75721;52.330;9.772;2024-03-07T01:06:58;21.48;;;11.13;;
85316;SDS011;75721;52.330;9.772;2024-03-07T01:09:25;25.98;;;10.95;;
85316;SDS011;75721;52.330;9.772;2024-03-07T01:11:53;26.27;;;11.05;;
85316;SDS011;75721;52.330;9.772;2024-03-07T01:14:20;24.90;;;11.02;;
85316;SDS011;75721;52.330;9.772;2024-03-07T01:16:45;22.70;;;10.87;;
85316;SDS011;75721;52.330;9.772;2024-03-07T01:19:12;23.60;;;9.93;;
85316;SDS011;75721;52.330;9.772;2024-03-07T01:21:38;24.42;;;10.88;;
85316;SDS011;75721;52.330;9.772;2024-03-07T01:24:03;21.95;;;10.05;;
85316;SDS011;75721;52.330;9.772;2024-03-07T01:26:29;20.15;;;9.90;;
85316;SDS011;75721;52.330;9.772;2024-03-07T01:28:57;22.08;;;10.48;;
85316;SDS011;75721;52.330;9.772;2024-03-07T01:31:23;20.40;;;9.55;;
85316;SDS011;75721;52.330;9.772;2024-03-07T01:33:49;23.15;;;10.25;;
85316;SDS011;75721;52.330;9.772;2024-03-07T01:36:14;25.20;;;10.65;;
85316;SDS011;75721;52.330;9.772;2024-03-07T01:38:40;20.60;;;9.23;;
85316;SDS011;75721;52.330;9.772;2024-03-07T01:41:06;18.47;;;9.77;;
85316;SDS011;75721;52.330;9.772;2024-03-07T01:43:31;23.73;;;10.17;;
85316;SDS011;75721;52.330;9.772;2024-03-07T01:45:56;24.07;;;10.10;;
85316;SDS011;75721;52.330;9.772;2024-03-07T01:48:26;19.90;;;9.77;;
85316;SDS011;75721;52.330;9.772;2024-03-07T01:50:56;20.05;;;9.52;;
85316;SDS011;75721;52.330;9.772;2024-03-07T01:53:24;21.55;;;9.27;;
85316;SDS011;75721;52.330;9.772;2024-03-07T01:55:52;21.80;;;9.90;;
85316;SDS011;75721;52.330;9.772;2024-03-07T01:58:19;21.88;;;10.30;;
85316;SDS011;75721;52.330;9.772;2024-03-07T02:00:46;22.85;;;10.80;;
85316;SDS011;75721;52.330;9.772;2024-03-07T02:03:12;21.67;;;10.52;;
85316;SDS011;75721;52.330;9.772;2024-03-07T02:05:39;24.70;;;9.65;;
85316;SDS011;75721;52.330;9.772;2024-03-07T02:08:04;21.83;;;9.52;;
85316;SDS011;75721;52.330;9.772;2024-03-07T02:10:30;21.52;;;9.88;;
85316;SDS011;75721;52.330;9.772;2024-03-07T02:12:55;23.47;;;9.50;;
85316;SDS011;75721;52.330;9.772;2024-03-07T02:15:20;24.03;;;9.93;;
85316;SDS011;75721;52.330;9.772;2024-03-07T02:17:46;25.93;;;10.70;;
85316;SDS011;75721;52.330;9.772;2024-03-07T02:20:11;24.13;;;10.60;;
85316;SDS011;75721;52.330;9.772;2024-03-07T02:22:38;25.65;;;11.30;;
85316;SDS011;75721;52.330;9.772;2024-03-07T02:25:03;24.70;;;11.95;;
85316;SDS011;75721;52.330;9.772;2024-03-07T02:27:30;25.70;;;11.32;;
85316;SDS011;75721;52.330;9.772;2024-03-07T02:29:55;24.83;;;10.80;;
85316;SDS011;75721;52.330;9.772;2024-03-07T02:32:20;21.93;;;9.90;;
85316;SDS011;75721;52.330;9.772;2024-03-07T02:34:46;26.97;;;11.53;;
85316;SDS011;75721;52.330;9.772;2024-03-07T02:37:12;24.48;;;11.00;;
85316;SDS011;75721;52.330;9.772;2024-03-07T02:39:37;26.42;;;11.55;;
85316;SDS011;75721;52.330;9.772;2024-03-07T02:42:03;23.40;;;9.60;;
85316;SDS011;75721;52.330;9.772;2024-03-07T02:44:28;22.38;;;10.50;;
85316;SDS011;75721;52.330;9.772;2024-03-07T02:46:54;25.73;;;10.80;;
85316;SDS011;75721;52.330;9.772;2024-03-07T02:49:19;26.85;;;11.57;;
85316;SDS011;75721;52.330;9.772;2024-03-07T02:51:46;22.67;;;10.68;;
85316;SDS011;75721;52.330;9.772;2024-03-07T02:54:12;24.50;;;10.95;;
85316;SDS011;75721;52.330;9.772;2024-03-07T02:56:37;28.43;;;11.80;;
85316;SDS011;75721;52.330;9.772;2024-03-07T02:59:02;25.88;;;10.75;;
85316;SDS011;75721;52.330;9.772;2024-03-07T03:01:28;25.23;;;10.35;;
85316;SDS011;75721;52.330;9.772;2024-03-07T03:03:53;25.80;;;11.10;;
85316;SDS011;75721;52.330;9.772;2024-03-07T03:06:18;28.08;;;12.05;;
85316;SDS011;75721;52.330;9.772;2024-03-07T03:08:47;29.30;;;12.50;;
85316;SDS011;75721;52.330;9.772;2024-03-07T03:11:12;26.48;;;11.50;;
85316;SDS011;75721;52.330;9.772;2024-03-07T03:13:39;24.73;;;11.52;;
85316;SDS011;75721;52.330;9.772;2024-03-07T03:16:07;28.58;;;11.10;;
85316;SDS011;75721;52.330;9.772;2024-03-07T03:18:33;28.77;;;12.07;;
85316;SDS011;75721;52.330;9.772;2024-03-07T03:20:59;29.70;;;12.52;;
85316;SDS011;75721;52.330;9.772;2024-03-07T03:23:25;25.67;;;11.77;;
85316;SDS011;75721;52.330;9.772;2024-03-07T03:25:50;25.90;;;11.97;;
85316;SDS011;75721;52.330;9.772;2024-03-07T03:28:15;24.13;;;10.57;;
85316;SDS011;75721;52.330;9.772;2024-03-07T03:30:41;30.35;;;11.45;;
85316;SDS011;75721;52.330;9.772;2024-03-07T03:33:08;26.33;;;11.23;;
85316;SDS011;75721;52.330;9.772;2024-03-07T03:35:33;28.38;;;13.02;;
85316;SDS011;75721;52.330;9.772;2024-03-07T03:37:59;25.27;;;12.15;;
85316;SDS011;75721;52.330;9.772;2024-03-07T03:40:24;29.85;;;11.95;;
85316;SDS011;75721;52.330;9.772;2024-03-07T03:42:50;26.60;;;11.37;;
85316;SDS011;75721;52.330;9.772;2024-03-07T03:45:15;27.15;;;11.45;;
85316;SDS011;75721;52.330;9.772;2024-03-07T03:47:41;29.87;;;12.77;;
85316;SDS011;75721;52.330;9.772;2024-03-07T03:50:11;29.52;;;13.00;;
85316;SDS011;75721;52.330;9.772;2024-03-07T03:52:40;28.13;;;13.10;;
85316;SDS011;75721;52.330;9.772;2024-03-07T03:55:06;31.55;;;13.25;;
85316;SDS011;75721;52.330;9.772;2024-03-07T03:57:32;31.67;;;13.20;;
85316;SDS011;75721;52.330;9.772;2024-03-07T03:59:58;30.73;;;12.93;;
85316;SDS011;75721;52.330;9.772;2024-03-07T04:02:24;34.67;;;12.95;;
85316;SDS011;75721;52.330;9.772;2024-03-07T04:04:50;30.40;;;14.25;;
85316;SDS011;75721;52.330;9.772;2024-03-07T04:07:16;31.20;;;12.77;;
85316;SDS011;75721;52.330;9.772;2024-03-07T04:09:42;29.20;;;12.77;;
85316;SDS011;75721;52.330;9.772;2024-03-07T04:12:08;33.95;;;14.63;;
85316;SDS011;75721;52.330;9.772;2024-03-07T04:14:37;29.55;;;13.07;;
85316;SDS011;75721;52.330;9.772;2024-03-07T04:17:06;35.05;;;14.50;;
85316;SDS011;75721;52.330;9.772;2024-03-07T04:19:33;31.80;;;14.55;;
85316;SDS011;75721;52.330;9.772;2024-03-07T04:22:00;31.90;;;14.38;;
85316;SDS011;75721;52.330;9.772;2024-03-07T04:24:25;31.87;;;13.70;;
85316;SDS011;75721;52.330;9.772;2024-03-07T04:26:50;34.93;;;14.87;;
85316;SDS011;75721;52.330;9.772;2024-03-07T04:29:18;33.80;;;14.30;;
85316;SDS011;75721;52.330;9.772;2024-03-07T04:31:44;29.10;;;13.27;;
85316;SDS011;75721;52.330;9.772;2024-03-07T04:34:09;35.77;;;14.30;;
85316;SDS011;75721;52.330;9.772;2024-03-07T04:36:34;32.83;;;14.63;;
85316;SDS011;75721;52.330;9.772;2024-03-07T04:38:59;34.47;;;13.98;;
85316;SDS011;75721;52.330;9.772;2024-03-07T04:41:25;35.10;;;14.37;;
85316;SDS011;75721;52.330;9.772;2024-03-07T04:43:50;34.87;;;15.37;;
85316;SDS011;75721;52.330;9.772;2024-03-07T04:46:15;29.17;;;13.63;;
85316;SDS011;75721;52.330;9.772;2024-03-07T04:48:41;30.50;;;14.27;;
85316;SDS011;75721;52.330;9.772;2024-03-07T04:51:07;33.35;;;14.13;;
85316;SDS011;75721;52.330;9.772;2024-03-07T04:53:33;36.88;;;14.23;;
85316;SDS011;75721;52.330;9.772;2024-03-07T04:55:58;34.33;;;14.37;;
85316;SDS011;75721;52.330;9.772;2024-03-07T04:58:23;32.50;;;13.80;;
85316;SDS011;75721;52.330;9.772;2024-03-07T05:00:49;30.93;;;15.17;;
85316;SDS011;75721;52.330;9.772;2024-03-07T05:03:14;35.27;;;14.77;;
85316;SDS011;75721;52.330;9.772;2024-03-07T05:05:39;36.70;;;14.93;;
85316;SDS011;75721;52.330;9.772;2024-03-07T05:08:06;31.95;;;15.07;;
85316;SDS011;75721;52.330;9.772;2024-03-07T05:10:31;32.10;;;15.10;;
85316;SDS011;75721;52.330;9.772;2024-03-07T05:12:56;29.90;;;15.03;;
85316;SDS011;75721;52.330;9.772;2024-03-07T05:15:24;39.03;;;15.05;;
85316;SDS011;75721;52.330;9.772;2024-03-07T05:17:51;38.67;;;17.55;;
85316;SDS011;75721;52.330;9.772;2024-03-07T05:20:17;42.13;;;15.23;;
85316;SDS011;75721;52.330;9.772;2024-03-07T05:22:42;32.88;;;15.13;;
85316;SDS011;75721;52.330;9.772;2024-03-07T05:30:09;30.85;;;14.07;;
85316;SDS011;75721;52.330;9.772;2024-03-07T05:32:36;36.63;;;15.88;;
85316;SDS011;75721;52.330;9.772;2024-03-07T05:35:02;38.28;;;16.85;;
85316;SDS011;75721;52.330;9.772;2024-03-07T05:37:28;33.67;;;15.80;;
85316;SDS011;75721;52.330;9.772;2024-03-07T05:39:53;40.13;;;16.63;;
85316;SDS011;75721;52.330;9.772;2024-03-07T05:42:19;36.85;;;17.30;;
85316;SDS011;75721;52.330;9.772;2024-03-07T05:44:44;46.85;;;17.40;;
85316;SDS011;75721;52.330;9.772;2024-03-07T05:47:10;46.42;;;17.75;;
85316;SDS011;75721;52.330;9.772;2024-03-07T05:49:38;45.28;;;18.08;;
85316;SDS011;75721;52.330;9.772;2024-03-07T05:52:04;45.13;;;18.27;;
85316;SDS011;75721;52.330;9.772;2024-03-07T05:54:30;53.75;;;20.20;;
85316;SDS011;75721;52.330;9.772;2024-03-07T05:56:56;51.58;;;19.98;;
85316;SDS011;75721;52.330;9.772;2024-03-07T05:59:21;49.43;;;19.77;;
85316;SDS011;75721;52.330;9.772;2024-03-07T06:01:47;61.13;;;23.07;;
85316;SDS011;75721;52.330;9.772;2024-03-07T06:04:13;50.53;;;19.90;;
85316;SDS011;75721;52.330;9.772;2024-03-07T06:06:38;54.33;;;21.70;;
85316;SDS011;75721;52.330;9.772;2024-03-07T06:09:05;59.03;;;22.33;;
85316;SDS011;75721;52.330;9.772;2024-03-07T06:11:35;54.20;;;22.17;;
85316;SDS011;75721;52.330;9.772;2024-03-07T06:14:01;54.17;;;23.88;;
85316;SDS011;75721;52.330;9.772;2024-03-07T06:16:30;57.67;;;20.73;;
85316;SDS011;75721;52.330;9.772;2024-03-07T06:19:00;57.28;;;21.38;;
85316;SDS011;75721;52.330;9.772;2024-03-07T06:21:26;60.42;;;22.85;;
85316;SDS011;75721;52.330;9.772;2024-03-07T06:23:52;67.90;;;22.17;;
85316;SDS011;75721;52.330;9.772;2024-03-07T06:26:24;73.57;;;23.88;;
85316;SDS011;75721;52.330;9.772;2024-03-07T06:29:22;70.28;;;22.33;;
85316;SDS011;75721;52.330;9.772;2024-03-07T06:31:47;67.60;;;24.10;;
85316;SDS011;75721;52.330;9.772;2024-03-07T06:34:13;72.40;;;24.27;;
85316;SDS011;75721;52.330;9.772;2024-03-07T06:36:39;62.67;;;24.17;;
85316;SDS011;75721;52.330;9.772;2024-03-07T06:39:05;74.55;;;24.23;;
85316;SDS011;75721;52.330;9.772;2024-03-07T06:41:32;73.20;;;24.13;;
85316;SDS011;75721;52.330;9.772;2024-03-07T06:44:00;74.47;;;25.95;;
85316;SDS011;75721;52.330;9.772;2024-03-07T06:46:26;81.47;;;25.73;;
85316;SDS011;75721;52.330;9.772;2024-03-07T06:48:51;73.72;;;25.20;;
85316;SDS011;75721;52.330;9.772;2024-03-07T06:51:17;73.20;;;25.35;;
85316;SDS011;75721;52.330;9.772;2024-03-07T06:53:43;71.82;;;25.70;;
85316;SDS011;75721;52.330;9.772;2024-03-07T06:56:10;72.32;;;25.13;;
85316;SDS011;75721;52.330;9.772;2024-03-07T06:58:35;81.83;;;24.43;;
85316;SDS011;75721;52.330;9.772;2024-03-07T07:01:01;77.05;;;27.23;;
85316;SDS011;75721;52.330;9.772;2024-03-07T07:03:27;78.43;;;26.65;;
85316;SDS011;75721;52.330;9.772;2024-03-07T07:05:55;74.30;;;24.50;;
85316;SDS011;75721;52.330;9.772;2024-03-07T07:08:20;74.57;;;24.33;;
85316;SDS011;75721;52.330;9.772;2024-03-07T07:10:47;71.55;;;25.58;;
85316;SDS011;75721;52.330;9.772;2024-03-07T07:13:12;68.40;;;25.97;;
85316;SDS011;75721;52.330;9.772;2024-03-07T07:15:38;76.75;;;25.52;;
85316;SDS011;75721;52.330;9.772;2024-03-07T07:18:04;73.00;;;24.70;;
85316;SDS011;75721;52.330;9.772;2024-03-07T07:20:32;74.05;;;25.83;;
85316;SDS011;75721;52.330;9.772;2024-03-07T07:22:59;78.05;;;27.65;;
85316;SDS011;75721;52.330;9.772;2024-03-07T07:25:27;73.28;;;25.33;;
85316;SDS011;75721;52.330;9.772;2024-03-07T07:27:52;72.32;;;26.42;;
85316;SDS011;75721;52.330;9.772;2024-03-07T07:30:19;61.17;;;24.10;;
85316;SDS011;75721;52.330;9.772;2024-03-07T07:32:48;76.47;;;26.02;;
85316;SDS011;75721;52.330;9.772;2024-03-07T07:35:13;89.20;;;28.70;;
85316;SDS011;75721;52.330;9.772;2024-03-07T07:37:50;80.50;;;26.42;;
85316;SDS011;75721;52.330;9.772;2024-03-07T07:40:19;74.28;;;26.83;;
85316;SDS011;75721;52.330;9.772;2024-03-07T07:42:47;90.72;;;27.15;;
85316;SDS011;75721;52.330;9.772;2024-03-07T07:45:15;89.53;;;28.05;;
85316;SDS011;75721;52.330;9.772;2024-03-07T07:47:44;81.38;;;27.80;;
85316;SDS011;75721;52.330;9.772;2024-03-07T07:50:14;77.85;;;27.13;;
85316;SDS011;75721;52.330;9.772;2024-03-07T07:55:15;93.25;;;28.05;;
85316;SDS011;75721;52.330;9.772;2024-03-07T07:57:45;71.18;;;26.23;;
85316;SDS011;75721;52.330;9.772;2024-03-07T08:02:39;81.40;;;27.08;;
85316;SDS011;75721;52.330;9.772;2024-03-07T08:05:05;74.07;;;24.98;;
85316;SDS011;75721;52.330;9.772;2024-03-07T08:07:31;79.53;;;26.08;;
85316;SDS011;75721;52.330;9.772;2024-03-07T08:09:56;81.97;;;27.27;;
85316;SDS011;75721;52.330;9.772;2024-03-07T08:12:21;80.57;;;26.17;;
85316;SDS011;75721;52.330;9.772;2024-03-07T08:14:46;78.30;;;24.57;;
85316;SDS011;75721;52.330;9.772;2024-03-07T08:17:12;72.17;;;25.63;;
85316;SDS011;75721;52.330;9.772;2024-03-07T08:19:37;72.33;;;24.93;;
85316;SDS011;75721;52.330;9.772;2024-03-07T08:22:02;73.13;;;23.47;;
85316;SDS011;75721;52.330;9.772;2024-03-07T08:24:28;65.13;;;24.20;;
85316;SDS011;75721;52.330;9.772;2024-03-07T08:26:53;63.37;;;22.87;;
85316;SDS011;75721;52.330;9.772;2024-03-07T08:29:18;60.03;;;24.17;;
85316;SDS011;75721;52.330;9.772;2024-03-07T08:31:44;73.32;;;23.80;;
85316;SDS011;75721;52.330;9.772;2024-03-07T08:34:09;69.80;;;24.30;;
85316;SDS011;75721;52.330;9.772;2024-03-07T08:36:34;69.20;;;21.77;;
85316;SDS011;75721;52.330;9.772;2024-03-07T08:39:01;66.88;;;23.90;;
85316;SDS011;75721;52.330;9.772;2024-03-07T08:41:28;63.90;;;22.10;;
85316;SDS011;75721;52.330;9.772;2024-03-07T08:43:56;62.38;;;20.95;;
85316;SDS011;75721;52.330;9.772;2024-03-07T08:46:21;60.85;;;22.67;;
85316;SDS011;75721;52.330;9.772;2024-03-07T08:48:47;57.60;;;20.57;;
85316;SDS011;75721;52.330;9.772;2024-03-07T08:51:13;70.55;;;21.80;;
85316;SDS011;75721;52.330;9.772;2024-03-07T08:53:40;60.50;;;21.30;;
85316;SDS011;75721;52.330;9.772;2024-03-07T08:56:05;58.73;;;22.43;;
85316;SDS011;75721;52.330;9.772;2024-03-07T08:58:31;62.28;;;22.38;;
85316;SDS011;75721;52.330;9.772;2024-03-07T09:00:57;66.27;;;22.67;;
85316;SDS011;75721;52.330;9.772;2024-03-07T09:03:23;50.17;;;19.05;;
85316;SDS011;75721;52.330;9.772;2024-03-07T09:05:50;61.88;;;20.30;;
85316;SDS011;75721;52.330;9.772;2024-03-07T09:08:17;53.28;;;19.88;;
85316;SDS011;75721;52.330;9.772;2024-03-07T09:10:42;56.53;;;19.70;;
85316;SDS011;75721;52.330;9.772;2024-03-07T09:13:07;61.80;;;19.93;;
85316;SDS011;75721;52.330;9.772;2024-03-07T09:15:33;53.30;;;20.57;;
85316;SDS011;75721;52.330;9.772;2024-03-07T09:17:58;54.92;;;19.23;;
85316;SDS011;75721;52.330;9.772;2024-03-07T09:20:24;51.63;;;19.65;;
85316;SDS011;75721;52.330;9.772;2024-03-07T09:22:49;55.63;;;19.63;;
85316;SDS011;75721;52.330;9.772;2024-03-07T09:25:15;54.30;;;19.20;;
85316;SDS011;75721;52.330;9.772;2024-03-07T09:27:42;50.72;;;18.65;;
85316;SDS011;75721;52.330;9.772;2024-03-07T09:30:08;46.55;;;17.58;;
85316;SDS011;75721;52.330;9.772;2024-03-07T09:32:43;46.08;;;16.95;;
85316;SDS011;75721;52.330;9.772;2024-03-07T09:35:08;56.65;;;18.02;;
85316;SDS011;75721;52.330;9.772;2024-03-07T09:37:38;50.75;;;16.95;;
85316;SDS011;75721;52.330;9.772;2024-03-07T09:40:05;48.92;;;17.27;;
85316;SDS011;75721;52.330;9.772;2024-03-07T09:42:30;46.47;;;16.27;;
85316;SDS011;75721;52.330;9.772;2024-03-07T09:44:58;43.22;;;17.05;;
85316;SDS011;75721;52.330;9.772;2024-03-07T09:47:26;40.78;;;16.02;;
85316;SDS011;75721;52.330;9.772;2024-03-07T09:49:53;40.22;;;15.25;;
85316;SDS011;75721;52.330;9.772;2024-03-07T09:52:18;45.08;;;17.20;;
85316;SDS011;75721;52.330;9.772;2024-03-07T09:54:45;43.13;;;15.35;;
85316;SDS011;75721;52.330;9.772;2024-03-07T09:57:11;44.60;;;16.73;;
85316;SDS011;75721;52.330;9.772;2024-03-07T09:59:37;42.60;;;15.50;;
85316;SDS011;75721;52.330;9.772;2024-03-07T10:02:05;47.97;;;18.00;;
85316;SDS011;75721;52.330;9.772;2024-03-07T10:04:39;50.53;;;17.33;;
85316;SDS011;75721;52.330;9.772;2024-03-07T10:07:10;46.92;;;16.08;;
85316;SDS011;75721;52.330;9.772;2024-03-07T10:09:38;45.20;;;19.33;;
85316;SDS011;75721;52.330;9.772;2024-03-07T10:12:05;50.22;;;16.48;;
85316;SDS011;75721;52.330;9.772;2024-03-07T10:14:34;47.03;;;15.98;;
85316;SDS011;75721;52.330;9.772;2024-03-07T10:19:25;46.60;;;15.57;;
85316;SDS011;75721;52.330;9.772;2024-03-07T10:21:50;51.28;;;17.73;;
85316;SDS011;75721;52.330;9.772;2024-03-07T10:24:17;50.85;;;16.83;;
85316;SDS011;75721;52.330;9.772;2024-03-07T10:26:42;49.95;;;18.40;;
85316;SDS011;75721;52.330;9.772;2024-03-07T10:29:08;43.78;;;17.63;;
85316;SDS011;75721;52.330;9.772;2024-03-07T10:31:34;49.17;;;16.73;;
85316;SDS011;75721;52.330;9.772;2024-03-07T10:34:02;48.45;;;16.67;;
85316;SDS011;75721;52.330;9.772;2024-03-07T10:36:32;50.03;;;18.33;;
85316;SDS011;75721;52.330;9.772;2024-03-07T10:38:58;48.97;;;16.38;;
85316;SDS011;75721;52.330;9.772;2024-03-07T10:41:37;40.40;;;16.58;;
85316;SDS011;75721;52.330;9.772;2024-03-07T10:46:43;43.08;;;16.75;;
85316;SDS011;75721;52.330;9.772;2024-03-07T10:49:15;45.85;;;18.17;;
85316;SDS011;75721;52.330;9.772;2024-03-07T10:51:43;45.10;;;16.50;;
85316;SDS011;75721;52.330;9.772;2024-03-07T10:54:22;46.58;;;16.95;;
85316;SDS011;75721;52.330;9.772;2024-03-07T10:57:15;43.22;;;16.90;;
85316;SDS011;75721;52.330;9.772;2024-03-07T10:59:54;42.03;;;16.42;;
85316;SDS011;75721;52.330;9.772;2024-03-07T11:04:52;40.90;;;16.05;;
85316;SDS011;75721;52.330;9.772;2024-03-07T11:07:21;37.63;;;15.63;;
85316;SDS011;75721;52.330;9.772;2024-03-07T11:09:51;47.22;;;16.98;;
85316;SDS011;75721;52.330;9.772;2024-03-07T11:12:21;42.92;;;16.92;;
85316;SDS011;75721;52.330;9.772;2024-03-07T11:14:49;40.58;;;16.30;;
85316;SDS011;75721;52.330;9.772;2024-03-07T11:17:16;42.40;;;16.35;;
85316;SDS011;75721;52.330;9.772;2024-03-07T11:19:44;40.88;;;15.65;;
85316;SDS011;75721;52.330;9.772;2024-03-07T11:22:10;41.05;;;15.13;;
85316;SDS011;75721;52.330;9.772;2024-03-07T11:24:42;42.45;;;16.33;;
85316;SDS011;75721;52.330;9.772;2024-03-07T11:27:08;36.10;;;14.43;;
85316;SDS011;75721;52.330;9.772;2024-03-07T11:29:42;40.83;;;16.42;;
85316;SDS011;75721;52.330;9.772;2024-03-07T11:32:10;34.75;;;13.75;;
85316;SDS011;75721;52.330;9.772;2024-03-07T11:34:43;37.78;;;16.75;;
85316;SDS011;75721;52.330;9.772;2024-03-07T11:37:19;35.03;;;14.88;;
85316;SDS011;75721;52.330;9.772;2024-03-07T11:40:01;34.90;;;15.07;;
85316;SDS011;75721;52.330;9.772;2024-03-07T11:42:33;37.88;;;15.50;;
85316;SDS011;75721;52.330;9.772;2024-03-07T11:45:00;39.78;;;16.42;;
85316;SDS011;75721;52.330;9.772;2024-03-07T11:47:35;36.38;;;17.23;;
85316;SDS011;75721;52.330;9.772;2024-03-07T11:50:06;37.78;;;15.70;;
85316;SDS011;75721;52.330;9.772;2024-03-07T11:52:38;33.65;;;13.95;;
85316;SDS011;75721;52.330;9.772;2024-03-07T11:55:07;30.25;;;12.90;;
85316;SDS011;75721;52.330;9.772;2024-03-07T11:57:33;34.20;;;14.23;;
85316;SDS011;75721;52.330;9.772;2024-03-07T11:59:58;34.42;;;15.23;;
85316;SDS011;75721;52.330;9.772;2024-03-07T12:02:26;41.00;;;15.80;;
85316;SDS011;75721;52.330;9.772;2024-03-07T12:04:52;34.53;;;14.77;;
85316;SDS011;75721;52.330;9.772;2024-03-07T12:07:19;37.60;;;14.38;;
85316;SDS011;75721;52.330;9.772;2024-03-07T12:09:48;34.63;;;13.43;;
85316;SDS011;75721;52.330;9.772;2024-03-07T12:12:19;33.53;;;14.00;;
85316;SDS011;75721;52.330;9.772;2024-03-07T12:14:46;35.33;;;14.68;;
85316;SDS011;75721;52.330;9.772;2024-03-07T12:17:13;31.30;;;13.95;;
85316;SDS011;75721;52.330;9.772;2024-03-07T12:19:41;36.88;;;13.40;;
85316;SDS011;75721;52.330;9.772;2024-03-07T12:22:11;32.92;;;14.02;;
85316;SDS011;75721;52.330;9.772;2024-03-07T12:24:39;32.10;;;14.07;;
85316;SDS011;75721;52.330;9.772;2024-03-07T12:27:06;33.67;;;14.00;;
85316;SDS011;75721;52.330;9.772;2024-03-07T12:29:36;29.42;;;13.63;;
85316;SDS011;75721;52.330;9.772;2024-03-07T12:32:06;29.35;;;13.18;;
85316;SDS011;75721;52.330;9.772;2024-03-07T12:34:42;32.40;;;12.65;;
85316;SDS011;75721;52.330;9.772;2024-03-07T12:37:10;32.38;;;13.40;;
85316;SDS011;75721;52.330;9.772;2024-03-07T12:39:36;30.25;;;13.93;;
85316;SDS011;75721;52.330;9.772;2024-03-07T12:42:11;24.73;;;11.90;;
85316;SDS011;75721;52.330;9.772;2024-03-07T12:44:42;28.40;;;12.98;;
85316;SDS011;75721;52.330;9.772;2024-03-07T12:47:17;27.88;;;12.30;;
85316;SDS011;75721;52.330;9.772;2024-03-07T12:49:43;33.80;;;14.32;;
85316;SDS011;75721;52.330;9.772;2024-03-07T12:52:09;33.22;;;13.75;;
85316;SDS011;75721;52.330;9.772;2024-03-07T12:54:35;31.45;;;13.32;;
85316;SDS011;75721;52.330;9.772;2024-03-07T12:57:09;30.00;;;12.43;;
85316;SDS011;75721;52.330;9.772;2024-03-07T12:59:35;30.38;;;12.27;;
85316;SDS011;75721;52.330;9.772;2024-03-07T13:02:03;29.98;;;12.52;;
85316;SDS011;75721;52.330;9.772;2024-03-07T13:04:31;32.20;;;14.65;;
85316;SDS011;75721;52.330;9.772;2024-03-07T13:06:57;32.88;;;12.90;;
85316;SDS011;75721;52.330;9.772;2024-03-07T13:09:27;34.55;;;13.60;;
85316;SDS011;75721;52.330;9.772;2024-03-07T13:11:53;34.72;;;15.48;;
85316;SDS011;75721;52.330;9.772;2024-03-07T13:14:19;37.08;;;12.48;;
85316;SDS011;75721;52.330;9.772;2024-03-07T13:16:44;32.70;;;13.55;;
85316;SDS011;75721;52.330;9.772;2024-03-07T13:19:10;30.43;;;12.67;;
85316;SDS011;75721;52.330;9.772;2024-03-07T13:21:37;32.55;;;13.80;;
85316;SDS011;75721;52.330;9.772;2024-03-07T13:24:04;33.05;;;12.85;;
85316;SDS011;75721;52.330;9.772;2024-03-07T13:26:30;34.25;;;13.02;;
85316;SDS011;75721;52.330;9.772;2024-03-07T13:28:57;31.67;;;13.68;;
85316;SDS011;75721;52.330;9.772;2024-03-07T13:31:27;34.15;;;12.77;;
85316;SDS011;75721;52.330;9.772;2024-03-07T13:33:53;34.38;;;13.05;;
85316;SDS011;75721;52.330;9.772;2024-03-07T13:36:20;24.05;;;12.07;;
85316;SDS011;75721;52.330;9.772;2024-03-07T13:38:54;26.38;;;12.68;;
85316;SDS011;75721;52.330;9.772;2024-03-07T13:41:21;29.60;;;12.88;;
85316;SDS011;75721;52.330;9.772;2024-03-07T13:43:47;28.58;;;11.57;;
85316;SDS011;75721;52.330;9.772;2024-03-07T13:46:13;28.02;;;11.18;;
85316;SDS011;75721;52.330;9.772;2024-03-07T13:48:40;27.35;;;11.25;;
85316;SDS011;75721;52.330;9.772;2024-03-07T13:51:07;28.42;;;11.57;;
85316;SDS011;75721;52.330;9.772;2024-03-07T13:53:33;27.52;;;12.35;;
85316;SDS011;75721;52.330;9.772;2024-03-07T14:06:50;32.50;;;12.13;;
85316;SDS011;75721;52.330;9.772;2024-03-07T14:09:43;25.85;;;11.38;;
85316;SDS011;75721;52.330;9.772;2024-03-07T14:15:50;26.83;;;10.77;;
85316;SDS011;75721;52.330;9.772;2024-03-07T14:21:56;27.95;;;11.50;;
85316;SDS011;75721;52.330;9.772;2024-03-07T14:30:36;24.45;;;10.50;;
85316;SDS011;75721;52.330;9.772;2024-03-07T14:33:08;27.70;;;12.02;;
85316;SDS011;75721;52.330;9.772;2024-03-07T14:35:58;30.20;;;13.00;;
85316;SDS011;75721;52.330;9.772;2024-03-07T14:38:50;27.42;;;11.57;;
85316;SDS011;75721;52.330;9.772;2024-03-07T14:41:19;24.65;;;11.18;;
85316;SDS011;75721;52.330;9.772;2024-03-07T14:43:48;24.77;;;10.68;;
85316;SDS011;75721;52.330;9.772;2024-03-07T14:46:14;20.48;;;10.52;;
85316;SDS011;75721;52.330;9.772;2024-03-07T14:48:41;23.83;;;11.43;;
85316;SDS011;75721;52.330;9.772;2024-03-07T14:51:07;25.30;;;11.10;;
85316;SDS011;75721;52.330;9.772;2024-03-07T14:53:34;23.27;;;11.27;;
85316;SDS011;75721;52.330;9.772;2024-03-07T14:56:00;28.23;;;11.77;;
85316;SDS011;75721;52.330;9.772;2024-03-07T14:58:25;26.13;;;12.13;;
85316;SDS011;75721;52.330;9.772;2024-03-07T15:00:51;28.80;;;11.95;;
85316;SDS011;75721;52.330;9.772;2024-03-07T15:03:19;29.85;;;11.50;;